Terminal Aerodrome Forecast
Issued by NWS Twin Cities, MN

Home | Current Version | Previous Version | Text Only | Print | Product List | Glossary On
Versions: 1 2 3 4 5 6 7 8 9 10 11 12 13 14 15 16 17 18 19 20
000
FTUS43 KMPX 300800 AAA
TAFEAU
TAF AMD
KEAU 300823Z 3008/3106 VRB03KT 6SM -SHRA BR OVC007
     FM301100 00000KT 3SM BR OVC004
     FM301600 35005KT P6SM BKN010 OVC020
     FM301900 34005KT P6SM BKN025
     FM302100 VRB03KT P6SM SCT025=

USA.gov is the U.S. government's official web portal to all federal, state and local government web resources and services.